sensor_id;sensor_type;location;lat;lon;timestamp;temperature;humidity
38788;DHT22;24536;45.488;12.238;2023-04-30T00:00:07;18.20;90.80
38788;DHT22;24536;45.488;12.238;2023-04-30T00:02:34;18.20;90.80
38788;DHT22;24536;45.488;12.238;2023-04-30T00:05:00;18.20;90.80
38788;DHT22;24536;45.488;12.238;2023-04-30T00:07:26;18.20;90.80
38788;DHT22;24536;45.488;12.238;2023-04-30T00:09:52;18.10;90.80
38788;DHT22;24536;45.488;12.238;2023-04-30T00:12:17;18.10;90.90
38788;DHT22;24536;45.488;12.238;2023-04-30T00:14:43;18.10;90.90
38788;DHT22;24536;45.488;12.238;2023-04-30T00:17:09;18.10;90.90
38788;DHT22;24536;45.488;12.238;2023-04-30T00:19:34;18.10;90.90
38788;DHT22;24536;45.488;12.238;2023-04-30T00:22:00;18.10;90.90
38788;DHT22;24536;45.488;12.238;2023-04-30T00:24:27;18.10;90.90
38788;DHT22;24536;45.488;12.238;2023-04-30T00:26:52;18.10;91.00
38788;DHT22;24536;45.488;12.238;2023-04-30T00:29:18;18.10;91.00
38788;DHT22;24536;45.488;12.238;2023-04-30T00:31:44;18.10;91.10
38788;DHT22;24536;45.488;12.238;2023-04-30T00:34:09;18.10;91.10
38788;DHT22;24536;45.488;12.238;2023-04-30T00:36:35;18.10;91.20
38788;DHT22;24536;45.488;12.238;2023-04-30T00:39:01;18.10;91.20
38788;DHT22;24536;45.488;12.238;2023-04-30T00:41:27;18.10;91.20
38788;DHT22;24536;45.488;12.238;2023-04-30T00:43:53;18.10;91.20
38788;DHT22;24536;45.488;12.238;2023-04-30T00:46:19;18.10;91.30
38788;DHT22;24536;45.488;12.238;2023-04-30T00:48:45;18.10;91.30
38788;DHT22;24536;45.488;12.238;2023-04-30T00:51:10;18.00;91.20
38788;DHT22;24536;45.488;12.238;2023-04-30T00:53:37;18.00;91.20
38788;DHT22;24536;45.488;12.238;2023-04-30T00:56:05;18.00;91.30
38788;DHT22;24536;45.488;12.238;2023-04-30T00:58:33;17.90;91.40
38788;DHT22;24536;45.488;12.238;2023-04-30T01:01:01;17.90;91.40
38788;DHT22;24536;45.488;12.238;2023-04-30T01:03:27;17.80;91.50
38788;DHT22;24536;45.488;12.238;2023-04-30T01:05:53;17.90;91.60
38788;DHT22;24536;45.488;12.238;2023-04-30T01:08:19;17.80;91.70
38788;DHT22;24536;45.488;12.238;2023-04-30T01:10:53;17.80;91.70
38788;DHT22;24536;45.488;12.238;2023-04-30T01:13:52;17.80;91.70
38788;DHT22;24536;45.488;12.238;2023-04-30T01:16:24;17.80;91.80
38788;DHT22;24536;45.488;12.238;2023-04-30T01:18:58;17.70;91.80
38788;DHT22;24536;45.488;12.238;2023-04-30T01:21:27;17.70;91.80
38788;DHT22;24536;45.488;12.238;2023-04-30T01:29:18;17.60;92.10
38788;DHT22;24536;45.488;12.238;2023-04-30T01:31:45;17.60;92.00
38788;DHT22;24536;45.488;12.238;2023-04-30T01:34:11;17.60;92.10
38788;DHT22;24536;45.488;12.238;2023-04-30T01:39:58;17.60;92.30
38788;DHT22;24536;45.488;12.238;2023-04-30T01:42:37;17.60;92.20
38788;DHT22;24536;45.488;12.238;2023-04-30T01:48:42;17.70;92.10
38788;DHT22;24536;45.488;12.238;2023-04-30T01:51:19;17.70;92.10
38788;DHT22;24536;45.488;12.238;2023-04-30T01:53:46;17.70;92.00
38788;DHT22;24536;45.488;12.238;2023-04-30T01:56:36;17.70;92.00
38788;DHT22;24536;45.488;12.238;2023-04-30T01:59:06;17.70;92.00
38788;DHT22;24536;45.488;12.238;2023-04-30T02:01:33;17.60;91.90
38788;DHT22;24536;45.488;12.238;2023-04-30T02:03:59;17.60;92.00
38788;DHT22;24536;45.488;12.238;2023-04-30T02:06:25;17.50;92.10
38788;DHT22;24536;45.488;12.238;2023-04-30T02:08:55;17.40;92.10
38788;DHT22;24536;45.488;12.238;2023-04-30T02:11:23;17.40;92.20
38788;DHT22;24536;45.488;12.238;2023-04-30T02:13:49;17.30;92.20
38788;DHT22;24536;45.488;12.238;2023-04-30T02:16:15;17.20;92.20
38788;DHT22;24536;45.488;12.238;2023-04-30T02:18:41;17.30;92.20
38788;DHT22;24536;45.488;12.238;2023-04-30T02:21:07;17.30;92.20
38788;DHT22;24536;45.488;12.238;2023-04-30T02:23:32;17.30;92.20
38788;DHT22;24536;45.488;12.238;2023-04-30T02:25:58;17.30;92.20
38788;DHT22;24536;45.488;12.238;2023-04-30T02:28:24;17.30;92.10
38788;DHT22;24536;45.488;12.238;2023-04-30T02:30:49;17.30;92.10
38788;DHT22;24536;45.488;12.238;2023-04-30T02:33:15;17.40;92.10
38788;DHT22;24536;45.488;12.238;2023-04-30T02:35:41;17.40;92.30
38788;DHT22;24536;45.488;12.238;2023-04-30T02:38:07;17.40;92.10
38788;DHT22;24536;45.488;12.238;2023-04-30T02:40:32;17.40;92.10
38788;DHT22;24536;45.488;12.238;2023-04-30T02:42:58;17.40;92.20
38788;DHT22;24536;45.488;12.238;2023-04-30T02:45:25;17.40;92.40
38788;DHT22;24536;45.488;12.238;2023-04-30T02:47:51;17.40;92.20
38788;DHT22;24536;45.488;12.238;2023-04-30T02:50:17;17.40;92.20
38788;DHT22;24536;45.488;12.238;2023-04-30T02:52:44;17.40;92.30
38788;DHT22;24536;45.488;12.238;2023-04-30T02:55:11;17.40;92.30
38788;DHT22;24536;45.488;12.238;2023-04-30T02:57:37;17.30;92.40
38788;DHT22;24536;45.488;12.238;2023-04-30T03:00:03;17.20;92.40
38788;DHT22;24536;45.488;12.238;2023-04-30T03:02:30;17.20;92.50
38788;DHT22;24536;45.488;12.238;2023-04-30T03:04:55;17.10;92.50
38788;DHT22;24536;45.488;12.238;2023-04-30T03:07:21;17.00;92.50
38788;DHT22;24536;45.488;12.238;2023-04-30T03:09:47;17.10;92.50
38788;DHT22;24536;45.488;12.238;2023-04-30T03:12:12;17.00;92.50
38788;DHT22;24536;45.488;12.238;2023-04-30T03:14:39;17.10;92.50
38788;DHT22;24536;45.488;12.238;2023-04-30T03:17:05;17.10;92.50
38788;DHT22;24536;45.488;12.238;2023-04-30T03:19:31;17.10;92.60
38788;DHT22;24536;45.488;12.238;2023-04-30T03:21:57;17.10;92.80
38788;DHT22;24536;45.488;12.238;2023-04-30T03:24:23;17.20;92.60
38788;DHT22;24536;45.488;12.238;2023-04-30T03:26:50;17.20;92.60
38788;DHT22;24536;45.488;12.238;2023-04-30T03:29:16;17.20;92.60
38788;DHT22;24536;45.488;12.238;2023-04-30T03:31:41;17.20;92.50
38788;DHT22;24536;45.488;12.238;2023-04-30T03:34:08;17.20;92.50
38788;DHT22;24536;45.488;12.238;2023-04-30T03:36:34;17.20;92.50
38788;DHT22;24536;45.488;12.238;2023-04-30T03:39:00;17.20;92.50
38788;DHT22;24536;45.488;12.238;2023-04-30T03:41:26;17.20;92.40
38788;DHT22;24536;45.488;12.238;2023-04-30T03:43:52;17.20;92.40
38788;DHT22;24536;45.488;12.238;2023-04-30T03:46:17;17.20;92.50
38788;DHT22;24536;45.488;12.238;2023-04-30T03:48:43;17.20;92.50
38788;DHT22;24536;45.488;12.238;2023-04-30T03:51:09;17.10;92.60
38788;DHT22;24536;45.488;12.238;2023-04-30T03:53:35;17.10;92.60
38788;DHT22;24536;45.488;12.238;2023-04-30T03:56:01;17.00;92.60
38788;DHT22;24536;45.488;12.238;2023-04-30T03:58:28;17.00;92.60
38788;DHT22;24536;45.488;12.238;2023-04-30T04:00:54;16.90;92.70
38788;DHT22;24536;45.488;12.238;2023-04-30T04:03:20;16.90;92.70
38788;DHT22;24536;45.488;12.238;2023-04-30T04:05:46;17.00;92.70
38788;DHT22;24536;45.488;12.238;2023-04-30T04:08:12;16.90;92.60
38788;DHT22;24536;45.488;12.238;2023-04-30T04:10:38;17.00;92.60
38788;DHT22;24536;45.488;12.238;2023-04-30T04:13:07;17.00;92.60
38788;DHT22;24536;45.488;12.238;2023-04-30T04:15:33;17.00;92.50
38788;DHT22;24536;45.488;12.238;2023-04-30T04:17:59;17.00;92.50
38788;DHT22;24536;45.488;12.238;2023-04-30T04:20:24;17.00;92.70
38788;DHT22;24536;45.488;12.238;2023-04-30T04:22:51;17.00;92.50
38788;DHT22;24536;45.488;12.238;2023-04-30T04:25:17;17.00;92.50
38788;DHT22;24536;45.488;12.238;2023-04-30T04:27:43;17.00;92.50
38788;DHT22;24536;45.488;12.238;2023-04-30T04:30:10;17.00;92.50
38788;DHT22;24536;45.488;12.238;2023-04-30T04:32:35;17.00;92.60
38788;DHT22;24536;45.488;12.238;2023-04-30T04:35:13;17.00;92.60
38788;DHT22;24536;45.488;12.238;2023-04-30T04:37:39;17.00;92.60
38788;DHT22;24536;45.488;12.238;2023-04-30T04:40:05;17.00;92.60
38788;DHT22;24536;45.488;12.238;2023-04-30T04:42:31;17.00;92.60
38788;DHT22;24536;45.488;12.238;2023-04-30T04:44:57;17.00;92.60
38788;DHT22;24536;45.488;12.238;2023-04-30T04:47:23;17.00;92.60
38788;DHT22;24536;45.488;12.238;2023-04-30T04:49:48;17.00;92.50
38788;DHT22;24536;45.488;12.238;2023-04-30T04:52:14;17.00;92.60
38788;DHT22;24536;45.488;12.238;2023-04-30T04:54:40;17.10;92.60
38788;DHT22;24536;45.488;12.238;2023-04-30T04:57:06;17.10;92.50
38788;DHT22;24536;45.488;12.238;2023-04-30T04:59:31;17.10;92.40
38788;DHT22;24536;45.488;12.238;2023-04-30T05:01:57;17.10;92.40
38788;DHT22;24536;45.488;12.238;2023-04-30T05:04:23;17.10;92.40
38788;DHT22;24536;45.488;12.238;2023-04-30T05:06:48;17.10;92.30
38788;DHT22;24536;45.488;12.238;2023-04-30T05:09:14;17.10;92.10
38788;DHT22;24536;45.488;12.238;2023-04-30T05:11:40;17.10;92.00
38788;DHT22;24536;45.488;12.238;2023-04-30T05:14:06;17.10;92.00
38788;DHT22;24536;45.488;12.238;2023-04-30T05:16:32;17.20;92.00
38788;DHT22;24536;45.488;12.238;2023-04-30T05:18:58;17.20;91.90
38788;DHT22;24536;45.488;12.238;2023-04-30T05:21:23;17.20;91.90
38788;DHT22;24536;45.488;12.238;2023-04-30T05:23:53;17.20;91.90
38788;DHT22;24536;45.488;12.238;2023-04-30T05:26:19;17.10;91.90
38788;DHT22;24536;45.488;12.238;2023-04-30T05:28:45;17.10;91.90
38788;DHT22;24536;45.488;12.238;2023-04-30T05:31:11;17.20;91.90
38788;DHT22;24536;45.488;12.238;2023-04-30T05:33:36;17.20;91.90
38788;DHT22;24536;45.488;12.238;2023-04-30T05:36:02;17.20;91.90
38788;DHT22;24536;45.488;12.238;2023-04-30T05:38:28;17.20;91.90
38788;DHT22;24536;45.488;12.238;2023-04-30T05:40:53;17.20;91.90
38788;DHT22;24536;45.488;12.238;2023-04-30T05:43:19;17.20;91.90
38788;DHT22;24536;45.488;12.238;2023-04-30T05:45:45;17.20;91.90
38788;DHT22;24536;45.488;12.238;2023-04-30T05:48:10;17.20;91.90
38788;DHT22;24536;45.488;12.238;2023-04-30T05:50:36;17.20;91.80
38788;DHT22;24536;45.488;12.238;2023-04-30T05:53:02;17.30;91.80
38788;DHT22;24536;45.488;12.238;2023-04-30T05:55:27;17.30;91.80
38788;DHT22;24536;45.488;12.238;2023-04-30T05:57:53;17.30;91.60
38788;DHT22;24536;45.488;12.238;2023-04-30T06:00:19;17.40;91.50
38788;DHT22;24536;45.488;12.238;2023-04-30T06:02:44;17.40;91.40
38788;DHT22;24536;45.488;12.238;2023-04-30T06:05:10;17.40;91.40
38788;DHT22;24536;45.488;12.238;2023-04-30T06:07:36;17.40;91.40
38788;DHT22;24536;45.488;12.238;2023-04-30T06:10:02;17.50;91.40
38788;DHT22;24536;45.488;12.238;2023-04-30T06:12:28;17.50;91.40
38788;DHT22;24536;45.488;12.238;2023-04-30T06:14:54;17.50;91.40
38788;DHT22;24536;45.488;12.238;2023-04-30T06:17:20;17.50;91.30
38788;DHT22;24536;45.488;12.238;2023-04-30T06:19:45;17.50;91.30
38788;DHT22;24536;45.488;12.238;2023-04-30T06:22:11;17.50;91.40
38788;DHT22;24536;45.488;12.238;2023-04-30T06:24:37;17.50;91.40
38788;DHT22;24536;45.488;12.238;2023-04-30T06:27:03;17.50;91.50
38788;DHT22;24536;45.488;12.238;2023-04-30T06:29:29;17.50;91.60
38788;DHT22;24536;45.488;12.238;2023-04-30T06:31:55;17.50;91.60
38788;DHT22;24536;45.488;12.238;2023-04-30T06:34:21;17.50;92.00
38788;DHT22;24536;45.488;12.238;2023-04-30T06:36:47;17.50;91.70
38788;DHT22;24536;45.488;12.238;2023-04-30T06:39:18;17.50;91.80
38788;DHT22;24536;45.488;12.238;2023-04-30T06:41:44;17.60;91.70
38788;DHT22;24536;45.488;12.238;2023-04-30T06:44:11;17.50;91.80
38788;DHT22;24536;45.488;12.238;2023-04-30T06:46:37;17.60;91.80
38788;DHT22;24536;45.488;12.238;2023-04-30T06:49:03;17.60;91.70
38788;DHT22;24536;45.488;12.238;2023-04-30T06:51:29;17.70;91.50
38788;DHT22;24536;45.488;12.238;2023-04-30T06:53:55;17.80;91.60
38788;DHT22;24536;45.488;12.238;2023-04-30T06:56:21;17.70;91.60
38788;DHT22;24536;45.488;12.238;2023-04-30T06:58:47;17.80;91.60
38788;DHT22;24536;45.488;12.238;2023-04-30T07:01:14;17.80;91.80
38788;DHT22;24536;45.488;12.238;2023-04-30T07:03:40;17.90;91.80
38788;DHT22;24536;45.488;12.238;2023-04-30T07:06:05;17.90;91.80
38788;DHT22;24536;45.488;12.238;2023-04-30T07:08:31;17.90;91.60
38788;DHT22;24536;45.488;12.238;2023-04-30T07:10:57;18.00;91.60
38788;DHT22;24536;45.488;12.238;2023-04-30T07:13:22;18.00;91.70
38788;DHT22;24536;45.488;12.238;2023-04-30T07:15:48;18.00;91.70
38788;DHT22;24536;45.488;12.238;2023-04-30T07:18:14;18.00;91.70
38788;DHT22;24536;45.488;12.238;2023-04-30T07:20:39;18.00;91.60
38788;DHT22;24536;45.488;12.238;2023-04-30T07:23:05;18.00;91.50
38788;DHT22;24536;45.488;12.238;2023-04-30T07:25:31;18.00;91.40
38788;DHT22;24536;45.488;12.238;2023-04-30T07:27:56;18.00;91.40
38788;DHT22;24536;45.488;12.238;2023-04-30T07:30:22;18.00;91.20
38788;DHT22;24536;45.488;12.238;2023-04-30T07:32:48;18.00;91.30
38788;DHT22;24536;45.488;12.238;2023-04-30T07:35:14;18.00;91.30
38788;DHT22;24536;45.488;12.238;2023-04-30T07:37:40;17.90;91.30
38788;DHT22;24536;45.488;12.238;2023-04-30T07:40:11;17.90;91.40
38788;DHT22;24536;45.488;12.238;2023-04-30T07:42:40;17.80;91.60
38788;DHT22;24536;45.488;12.238;2023-04-30T07:45:07;17.80;91.70
38788;DHT22;24536;45.488;12.238;2023-04-30T07:47:33;17.80;91.80
38788;DHT22;24536;45.488;12.238;2023-04-30T07:49:58;17.70;91.90
38788;DHT22;24536;45.488;12.238;2023-04-30T07:52:24;17.70;91.90
38788;DHT22;24536;45.488;12.238;2023-04-30T07:54:50;17.80;92.10
38788;DHT22;24536;45.488;12.238;2023-04-30T07:57:16;17.80;92.10
38788;DHT22;24536;45.488;12.238;2023-04-30T07:59:42;17.70;92.30
38788;DHT22;24536;45.488;12.238;2023-04-30T08:02:07;17.80;92.30
38788;DHT22;24536;45.488;12.238;2023-04-30T08:04:34;17.70;92.40
38788;DHT22;24536;45.488;12.238;2023-04-30T08:06:59;17.80;92.60
38788;DHT22;24536;45.488;12.238;2023-04-30T08:09:26;17.80;92.80
38788;DHT22;24536;45.488;12.238;2023-04-30T08:11:52;17.80;92.70
38788;DHT22;24536;45.488;12.238;2023-04-30T08:14:18;17.80;92.60
38788;DHT22;24536;45.488;12.238;2023-04-30T08:16:44;17.80;92.70
38788;DHT22;24536;45.488;12.238;2023-04-30T08:19:10;17.80;92.70
38788;DHT22;24536;45.488;12.238;2023-04-30T08:21:35;17.80;92.70
38788;DHT22;24536;45.488;12.238;2023-04-30T08:24:01;17.80;92.80
38788;DHT22;24536;45.488;12.238;2023-04-30T08:26:27;17.80;92.80
38788;DHT22;24536;45.488;12.238;2023-04-30T08:28:52;17.90;92.90
38788;DHT22;24536;45.488;12.238;2023-04-30T08:31:18;17.90;93.00
38788;DHT22;24536;45.488;12.238;2023-04-30T08:33:44;18.00;93.00
38788;DHT22;24536;45.488;12.238;2023-04-30T08:36:10;18.00;93.00
38788;DHT22;24536;45.488;12.238;2023-04-30T08:38:35;18.00;93.10
38788;DHT22;24536;45.488;12.238;2023-04-30T08:41:12;18.00;93.10
38788;DHT22;24536;45.488;12.238;2023-04-30T08:43:38;18.10;93.10
38788;DHT22;24536;45.488;12.238;2023-04-30T08:46:04;18.10;93.20
38788;DHT22;24536;45.488;12.238;2023-04-30T08:48:30;18.10;93.30
38788;DHT22;24536;45.488;12.238;2023-04-30T08:51:03;18.10;93.40
38788;DHT22;24536;45.488;12.238;2023-04-30T08:53:30;18.10;93.40
38788;DHT22;24536;45.488;12.238;2023-04-30T08:55:58;18.10;93.40
38788;DHT22;24536;45.488;12.238;2023-04-30T08:58:24;18.20;93.50
38788;DHT22;24536;45.488;12.238;2023-04-30T09:00:50;18.20;93.50
38788;DHT22;24536;45.488;12.238;2023-04-30T09:03:16;18.30;93.30
38788;DHT22;24536;45.488;12.238;2023-04-30T09:05:42;18.30;93.20
38788;DHT22;24536;45.488;12.238;2023-04-30T09:08:08;18.40;93.10
38788;DHT22;24536;45.488;12.238;2023-04-30T09:10:34;18.40;92.80
38788;DHT22;24536;45.488;12.238;2023-04-30T09:13:02;18.50;92.70
38788;DHT22;24536;45.488;12.238;2023-04-30T09:15:29;18.60;92.70
38788;DHT22;24536;45.488;12.238;2023-04-30T09:18:10;18.70;92.50
38788;DHT22;24536;45.488;12.238;2023-04-30T09:20:36;18.70;92.50
38788;DHT22;24536;45.488;12.238;2023-04-30T09:23:09;18.80;92.50
38788;DHT22;24536;45.488;12.238;2023-04-30T09:25:42;18.80;92.50
38788;DHT22;24536;45.488;12.238;2023-04-30T09:28:09;18.90;92.50
38788;DHT22;24536;45.488;12.238;2023-04-30T09:30:36;19.00;92.40
38788;DHT22;24536;45.488;12.238;2023-04-30T09:33:02;19.00;92.40
38788;DHT22;24536;45.488;12.238;2023-04-30T09:35:32;19.10;92.40
38788;DHT22;24536;45.488;12.238;2023-04-30T09:38:01;19.10;92.40
38788;DHT22;24536;45.488;12.238;2023-04-30T09:40:37;19.20;92.30
38788;DHT22;24536;45.488;12.238;2023-04-30T09:43:03;19.20;92.30
38788;DHT22;24536;45.488;12.238;2023-04-30T09:45:42;19.30;92.30
38788;DHT22;24536;45.488;12.238;2023-04-30T09:48:09;19.30;92.20
38788;DHT22;24536;45.488;12.238;2023-04-30T09:50:38;19.40;92.10
38788;DHT22;24536;45.488;12.238;2023-04-30T09:53:08;19.40;92.10
38788;DHT22;24536;45.488;12.238;2023-04-30T09:55:35;19.40;92.10
38788;DHT22;24536;45.488;12.238;2023-04-30T09:58:05;19.40;91.90
38788;DHT22;24536;45.488;12.238;2023-04-30T10:00:32;19.50;91.90
38788;DHT22;24536;45.488;12.238;2023-04-30T10:03:00;19.50;91.80
38788;DHT22;24536;45.488;12.238;2023-04-30T10:05:28;19.60;91.80
38788;DHT22;24536;45.488;12.238;2023-04-30T10:07:54;19.60;91.70
38788;DHT22;24536;45.488;12.238;2023-04-30T10:10:20;19.70;91.70
38788;DHT22;24536;45.488;12.238;2023-04-30T10:12:50;19.80;91.60
38788;DHT22;24536;45.488;12.238;2023-04-30T10:15:27;19.90;91.50
38788;DHT22;24536;45.488;12.238;2023-04-30T10:18:01;20.00;91.40
38788;DHT22;24536;45.488;12.238;2023-04-30T10:20:27;20.10;91.30
38788;DHT22;24536;45.488;12.238;2023-04-30T10:22:53;20.20;91.30
38788;DHT22;24536;45.488;12.238;2023-04-30T10:25:19;20.40;91.10
38788;DHT22;24536;45.488;12.238;2023-04-30T10:27:47;20.50;91.10
38788;DHT22;24536;45.488;12.238;2023-04-30T10:30:13;20.60;90.90
38788;DHT22;24536;45.488;12.238;2023-04-30T10:35:25;20.90;90.30
38788;DHT22;24536;45.488;12.238;2023-04-30T10:40:35;21.30;89.10
38788;DHT22;24536;45.488;12.238;2023-04-30T10:43:01;21.60;87.70
38788;DHT22;24536;45.488;12.238;2023-04-30T10:45:34;21.80;85.20
38788;DHT22;24536;45.488;12.238;2023-04-30T10:48:05;21.90;84.50
38788;DHT22;24536;45.488;12.238;2023-04-30T10:50:31;22.10;83.90
38788;DHT22;24536;45.488;12.238;2023-04-30T10:53:06;22.20;81.80
38788;DHT22;24536;45.488;12.238;2023-04-30T10:55:32;22.30;81.40
38788;DHT22;24536;45.488;12.238;2023-04-30T10:57:58;22.40;81.20
38788;DHT22;24536;45.488;12.238;2023-04-30T11:00:28;22.50;81.10
38788;DHT22;24536;45.488;12.238;2023-04-30T11:02:57;22.60;80.60
38788;DHT22;24536;45.488;12.238;2023-04-30T11:05:37;22.70;77.20
38788;DHT22;24536;45.488;12.238;2023-04-30T11:08:03;22.70;78.70
38788;DHT22;24536;45.488;12.238;2023-04-30T11:10:34;22.70;78.50
38788;DHT22;24536;45.488;12.238;2023-04-30T11:13:04;22.70;77.90
38788;DHT22;24536;45.488;12.238;2023-04-30T11:15:40;22.70;77.60
38788;DHT22;24536;45.488;12.238;2023-04-30T11:18:07;22.80;76.40
38788;DHT22;24536;45.488;12.238;2023-04-30T11:20:33;23.10;77.40
38788;DHT22;24536;45.488;12.238;2023-04-30T11:23:13;23.40;77.50
38788;DHT22;24536;45.488;12.238;2023-04-30T11:25:46;23.90;75.30
38788;DHT22;24536;45.488;12.238;2023-04-30T11:28:21;24.20;73.70
38788;DHT22;24536;45.488;12.238;2023-04-30T11:30:51;24.60;73.10
38788;DHT22;24536;45.488;12.238;2023-04-30T11:33:17;24.90;72.00
38788;DHT22;24536;45.488;12.238;2023-04-30T11:35:43;25.20;70.20
38788;DHT22;24536;45.488;12.238;2023-04-30T11:38:11;25.50;68.40
38788;DHT22;24536;45.488;12.238;2023-04-30T11:40:37;25.80;67.10
38788;DHT22;24536;45.488;12.238;2023-04-30T11:43:03;26.10;64.80
38788;DHT22;24536;45.488;12.238;2023-04-30T11:45:29;26.30;66.00
38788;DHT22;24536;45.488;12.238;2023-04-30T11:47:56;26.60;63.30
38788;DHT22;24536;45.488;12.238;2023-04-30T11:50:23;26.80;63.60
38788;DHT22;24536;45.488;12.238;2023-04-30T11:52:55;27.10;62.70
38788;DHT22;24536;45.488;12.238;2023-04-30T11:55:25;27.40;61.40
38788;DHT22;24536;45.488;12.238;2023-04-30T11:57:53;27.60;60.70
38788;DHT22;24536;45.488;12.238;2023-04-30T12:00:25;27.70;57.40
38788;DHT22;24536;45.488;12.238;2023-04-30T12:02:52;27.60;57.50
38788;DHT22;24536;45.488;12.238;2023-04-30T12:05:25;27.60;58.40
38788;DHT22;24536;45.488;12.238;2023-04-30T12:10:22;27.50;57.60
38788;DHT22;24536;45.488;12.238;2023-04-30T12:12:49;27.50;58.20
38788;DHT22;24536;45.488;12.238;2023-04-30T12:15:20;27.40;56.80
38788;DHT22;24536;45.488;12.238;2023-04-30T12:17:57;27.20;57.20
38788;DHT22;24536;45.488;12.238;2023-04-30T12:20:26;27.10;57.60
38788;DHT22;24536;45.488;12.238;2023-04-30T12:22:53;27.00;58.10
38788;DHT22;24536;45.488;12.238;2023-04-30T12:25:22;27.00;57.90
38788;DHT22;24536;45.488;12.238;2023-04-30T12:27:51;27.00;58.00
38788;DHT22;24536;45.488;12.238;2023-04-30T12:30:23;27.10;57.90
38788;DHT22;24536;45.488;12.238;2023-04-30T12:32:50;27.20;57.40
38788;DHT22;24536;45.488;12.238;2023-04-30T12:35:19;27.40;57.80
38788;DHT22;24536;45.488;12.238;2023-04-30T12:37:50;27.80;56.90
38788;DHT22;24536;45.488;12.238;2023-04-30T12:40:25;28.20;55.60
38788;DHT22;24536;45.488;12.238;2023-04-30T12:42:58;28.60;54.80
38788;DHT22;24536;45.488;12.238;2023-04-30T12:45:43;28.90;53.70
38788;DHT22;24536;45.488;12.238;2023-04-30T12:48:09;29.20;51.80
38788;DHT22;24536;45.488;12.238;2023-04-30T12:50:35;29.30;51.60
38788;DHT22;24536;45.488;12.238;2023-04-30T12:53:03;29.40;51.30
38788;DHT22;24536;45.488;12.238;2023-04-30T12:55:29;29.40;50.70
38788;DHT22;24536;45.488;12.238;2023-04-30T12:58:09;29.20;50.50
38788;DHT22;24536;45.488;12.238;2023-04-30T13:00:49;29.10;50.90
38788;DHT22;24536;45.488;12.238;2023-04-30T13:03:16;28.80;51.50
38788;DHT22;24536;45.488;12.238;2023-04-30T13:05:50;28.60;51.50
38788;DHT22;24536;45.488;12.238;2023-04-30T13:08:17;28.60;51.30
38788;DHT22;24536;45.488;12.238;2023-04-30T13:10:47;28.80;51.30
38788;DHT22;24536;45.488;12.238;2023-04-30T13:13:14;28.90;51.30
38788;DHT22;24536;45.488;12.238;2023-04-30T13:15:41;29.20;50.70
38788;DHT22;24536;45.488;12.238;2023-04-30T13:18:07;29.30;50.20
38788;DHT22;24536;45.488;12.238;2023-04-30T13:20:34;29.40;49.70
38788;DHT22;24536;45.488;12.238;2023-04-30T13:23:00;29.40;49.30
38788;DHT22;24536;45.488;12.238;2023-04-30T13:25:26;29.40;49.30
38788;DHT22;24536;45.488;12.238;2023-04-30T13:27:51;29.40;48.80
38788;DHT22;24536;45.488;12.238;2023-04-30T13:30:17;29.50;48.70
38788;DHT22;24536;45.488;12.238;2023-04-30T13:32:46;29.40;49.60
38788;DHT22;24536;45.488;12.238;2023-04-30T13:35:11;29.30;49.50
38788;DHT22;24536;45.488;12.238;2023-04-30T13:37:38;29.30;48.90
38788;DHT22;24536;45.488;12.238;2023-04-30T13:40:07;29.20;48.60
38788;DHT22;24536;45.488;12.238;2023-04-30T13:42:33;29.30;49.10
38788;DHT22;24536;45.488;12.238;2023-04-30T13:44:59;29.40;48.80
38788;DHT22;24536;45.488;12.238;2023-04-30T13:47:24;29.30;48.20
38788;DHT22;24536;45.488;12.238;2023-04-30T13:49:51;29.20;47.80
38788;DHT22;24536;45.488;12.238;2023-04-30T13:52:17;29.20;48.10
38788;DHT22;24536;45.488;12.238;2023-04-30T13:54:43;29.20;48.40
38788;DHT22;24536;45.488;12.238;2023-04-30T13:57:08;29.20;48.40
38788;DHT22;24536;45.488;12.238;2023-04-30T13:59:34;29.10;48.50
38788;DHT22;24536;45.488;12.238;2023-04-30T14:02:00;29.00;48.40
38788;DHT22;24536;45.488;12.238;2023-04-30T14:04:25;28.90;48.40
38788;DHT22;24536;45.488;12.238;2023-04-30T14:06:52;28.80;49.00
38788;DHT22;24536;45.488;12.238;2023-04-30T14:09:21;28.60;49.30
38788;DHT22;24536;45.488;12.238;2023-04-30T14:11:47;28.30;49.10
38788;DHT22;24536;45.488;12.238;2023-04-30T14:14:13;28.00;49.80
38788;DHT22;24536;45.488;12.238;2023-04-30T14:16:39;27.70;49.90
38788;DHT22;24536;45.488;12.238;2023-04-30T14:19:04;27.30;49.90
38788;DHT22;24536;45.488;12.238;2023-04-30T14:21:30;27.00;50.20
38788;DHT22;24536;45.488;12.238;2023-04-30T14:23:57;26.80;51.20
38788;DHT22;24536;45.488;12.238;2023-04-30T14:26:23;26.50;51.80
38788;DHT22;24536;45.488;12.238;2023-04-30T14:28:49;26.30;52.20
38788;DHT22;24536;45.488;12.238;2023-04-30T14:31:15;26.20;52.40
38788;DHT22;24536;45.488;12.238;2023-04-30T14:33:40;26.10;52.60
38788;DHT22;24536;45.488;12.238;2023-04-30T14:36:07;26.00;52.50
38788;DHT22;24536;45.488;12.238;2023-04-30T14:38:32;25.90;52.70
38788;DHT22;24536;45.488;12.238;2023-04-30T14:40:58;25.80;52.90
38788;DHT22;24536;45.488;12.238;2023-04-30T14:43:24;25.70;53.00
38788;DHT22;24536;45.488;12.238;2023-04-30T14:45:50;25.60;53.10
38788;DHT22;24536;45.488;12.238;2023-04-30T14:48:16;25.50;53.30
38788;DHT22;24536;45.488;12.238;2023-04-30T14:50:43;25.50;53.10
38788;DHT22;24536;45.488;12.238;2023-04-30T14:53:09;25.50;53.00
38788;DHT22;24536;45.488;12.238;2023-04-30T14:55:36;25.40;53.10
38788;DHT22;24536;45.488;12.238;2023-04-30T14:58:02;25.40;52.70
38788;DHT22;24536;45.488;12.238;2023-04-30T15:00:30;25.40;52.80
38788;DHT22;24536;45.488;12.238;2023-04-30T15:02:57;25.40;53.10
38788;DHT22;24536;45.488;12.238;2023-04-30T15:05:23;25.30;53.20
38788;DHT22;24536;45.488;12.238;2023-04-30T15:07:49;25.30;53.10
38788;DHT22;24536;45.488;12.238;2023-04-30T15:10:15;25.20;53.00
38788;DHT22;24536;45.488;12.238;2023-04-30T15:12:41;25.20;53.40
38788;DHT22;24536;45.488;12.238;2023-04-30T15:15:07;25.20;53.80
38788;DHT22;24536;45.488;12.238;2023-04-30T15:17:34;25.00;54.00
38788;DHT22;24536;45.488;12.238;2023-04-30T15:20:02;25.00;54.00
38788;DHT22;24536;45.488;12.238;2023-04-30T15:22:29;24.90;54.10
38788;DHT22;24536;45.488;12.238;2023-04-30T15:25:00;24.90;54.20
38788;DHT22;24536;45.488;12.238;2023-04-30T15:27:27;24.80;54.50
38788;DHT22;24536;45.488;12.238;2023-04-30T15:29:52;24.80;54.40
38788;DHT22;24536;45.488;12.238;2023-04-30T15:32:18;24.80;54.60
38788;DHT22;24536;45.488;12.238;2023-04-30T15:34:45;24.70;54.50